Time;durP1;ratioP1;P1;durP2;ratioP2;P2;SDS_P1;SDS_P2;PMS_P1;PMS_P2;Temp;Humidity;BMP_temperature;BMP_pressure;BME280_temperature;BME280_humidity;BME280_pressure;Samples;Min_cycle;Max_cycle;Signal;HPM_P1;HPM_P2
2021/01/23 00:01:27;;;;;;;3.43;2.40;;;5.60;99.90;;;;;;5035494;28;20528;-74
2021/01/23 00:03:55;;;;;;;2.63;2.30;;;5.60;99.90;;;;;;5054188;28;20430;-71
2021/01/23 00:06:47;;;;;;;2.57;2.20;;;5.40;99.90;;;;;;5054051;28;20414;-72
2021/01/23 00:09:16;;;;;;;2.03;1.93;;;5.40;99.90;;;;;;5054426;28;20534;-71
2021/01/23 00:11:43;;;;;;;1.80;1.70;;;5.50;99.90;;;;;;5054442;28;20426;-71
2021/01/23 00:14:16;;;;;;;3.23;2.20;;;5.40;99.90;;;;;;5036935;28;20405;-71
2021/01/23 00:16:44;;;;;;;2.50;2.27;;;5.40;99.90;;;;;;5053775;28;20478;-72
2021/01/23 00:19:12;;;;;;;2.60;2.07;;;5.30;99.90;;;;;;5037864;28;20934;-71
2021/01/23 00:21:39;;;;;;;2.07;1.67;;;5.30;99.90;;;;;;5062398;28;20431;-71
2021/01/23 00:24:09;;;;;;;2.20;1.97;;;5.30;99.90;;;;;;5073911;28;20458;-71
2021/01/23 00:26:38;;;;;;;2.00;1.60;;;5.30;99.90;;;;;;5057052;28;20438;-71
2021/01/23 00:29:06;;;;;;;2.97;1.87;;;5.30;99.90;;;;;;5039783;28;20503;-74
2021/01/23 00:31:33;;;;;;;1.70;1.60;;;5.20;99.90;;;;;;5055906;28;20473;-72
2021/01/23 00:34:00;;;;;;;3.57;2.13;;;5.20;99.90;;;;;;5056853;28;20489;-73
2021/01/23 00:36:28;;;;;;;2.70;2.23;;;5.20;99.90;;;;;;5038971;28;20440;-74
2021/01/23 00:38:56;;;;;;;4.47;2.13;;;5.20;99.90;;;;;;5057085;28;20430;-71
2021/01/23 00:41:23;;;;;;;3.07;2.57;;;5.10;99.90;;;;;;5056708;28;20834;-72
2021/01/23 00:43:51;;;;;;;3.10;2.80;;;5.00;99.90;;;;;;5057094;28;20438;-71
2021/01/23 00:46:19;;;;;;;2.40;2.13;;;5.00;99.90;;;;;;5055563;28;20500;-70
2021/01/23 00:48:48;;;;;;;3.97;2.47;;;5.00;99.90;;;;;;5039718;28;20430;-71
2021/01/23 00:51:16;;;;;;;2.90;2.63;;;5.00;99.90;;;;;;5039089;28;20421;-71
2021/01/23 00:53:44;;;;;;;3.27;2.97;;;5.10;99.90;;;;;;5039409;28;20431;-72
2021/01/23 00:56:16;;;;;;;2.73;2.10;;;5.00;99.90;;;;;;5057616;28;20477;-71
2021/01/23 00:58:43;;;;;;;1.93;1.83;;;4.90;99.90;;;;;;5057327;28;20434;-72
2021/01/23 01:01:13;;;;;;;2.93;2.57;;;4.90;99.90;;;;;;5021067;28;20472;-74
2021/01/23 01:03:43;;;;;;;2.80;2.60;;;4.80;99.90;;;;;;5057617;28;20549;-71
2021/01/23 01:06:12;;;;;;;2.00;1.90;;;4.80;99.90;;;;;;5043401;28;20434;-71
2021/01/23 01:08:41;;;;;;;1.83;1.73;;;4.80;99.90;;;;;;5056565;28;20423;-72
2021/01/23 01:11:08;;;;;;;2.40;2.20;;;4.70;99.90;;;;;;5040330;28;20457;-71
2021/01/23 01:13:36;;;;;;;2.37;2.17;;;4.70;99.90;;;;;;5057556;28;20801;-72
2021/01/23 01:16:04;;;;;;;3.60;2.17;;;4.60;99.90;;;;;;5053338;28;20516;-71
2021/01/23 01:18:33;;;;;;;2.20;1.97;;;4.50;99.90;;;;;;5055911;28;20454;-72
2021/01/23 01:21:01;;;;;;;2.20;2.00;;;4.40;99.90;;;;;;5057175;28;20419;-73
2021/01/23 01:23:54;;;;;;;2.47;2.10;;;4.40;99.90;;;;;;5057125;28;20464;-72
2021/01/23 01:26:21;;;;;;;2.87;1.87;;;4.40;99.90;;;;;;5057116;28;20431;-71
2021/01/23 01:28:49;;;;;;;3.40;2.60;;;4.30;99.90;;;;;;5057244;28;20974;-72
2021/01/23 01:31:16;;;;;;;2.50;2.30;;;4.40;99.90;;;;;;5056720;28;20493;-71
2021/01/23 01:33:44;;;;;;;2.43;2.20;;;4.30;99.90;;;;;;5042029;28;20435;-71
2021/01/23 01:36:12;;;;;;;2.77;2.33;;;4.30;99.90;;;;;;5041031;28;20496;-71
2021/01/23 01:38:39;;;;;;;3.00;2.70;;;4.30;99.90;;;;;;5060464;28;20435;-72
2021/01/23 01:41:06;;;;;;;3.00;2.53;;;4.30;99.90;;;;;;5040577;28;20462;-72
2021/01/23 01:43:34;;;;;;;3.23;2.63;;;4.20;99.90;;;;;;5038045;28;20995;-72
2021/01/23 01:46:03;;;;;;;2.43;2.23;;;4.20;99.90;;;;;;5038188;28;20428;-71
2021/01/23 01:48:31;;;;;;;1.70;1.60;;;4.20;99.90;;;;;;5056604;28;20512;-70
2021/01/23 01:51:03;;;;;;;2.90;2.50;;;4.30;99.90;;;;;;5039687;28;20948;-71
2021/01/23 01:53:31;;;;;;;1.77;1.67;;;4.20;99.90;;;;;;5055877;28;20517;-75
2021/01/23 01:55:59;;;;;;;2.63;2.23;;;4.10;99.90;;;;;;5056465;28;20859;-71
2021/01/23 01:58:26;;;;;;;2.30;2.03;;;4.10;99.90;;;;;;5056026;28;20567;-73
2021/01/23 02:00:54;;;;;;;2.77;1.77;;;4.10;99.90;;;;;;5038563;28;20447;-71
2021/01/23 02:03:43;;;;;;;1.90;1.80;;;4.10;99.90;;;;;;5058376;28;20431;-72
2021/01/23 02:09:24;;;;;;;2.20;1.90;;;4.10;99.90;;;;;;5056716;28;20929;-73
2021/01/23 02:12:02;;;;;;;1.57;1.40;;;4.10;99.90;;;;;;5057231;28;20438;-71
2021/01/23 02:14:36;;;;;;;2.60;2.00;;;4.10;99.90;;;;;;5056625;28;20521;-72
2021/01/23 02:17:11;;;;;;;2.10;1.90;;;4.20;99.90;;;;;;5037868;28;20486;-71
2021/01/23 02:20:10;;;;;;;2.57;1.60;;;4.20;99.90;;;;;;5056811;28;20720;-71
2021/01/23 02:23:13;;;;;;;2.80;2.50;;;4.20;99.90;;;;;;5057052;28;20435;-71
2021/01/23 02:26:01;;;;;;;2.90;2.20;;;4.30;99.90;;;;;;5022425;28;20859;-71
2021/01/23 02:28:57;;;;;;;4.40;2.50;;;4.30;99.90;;;;;;5056730;28;20630;-72
2021/01/23 02:31:28;;;;;;;7.37;4.03;;;4.30;99.90;;;;;;5015495;28;20991;-72
2021/01/23 02:33:58;;;;;;;3.93;2.37;;;4.20;99.90;;;;;;5039170;28;20902;-75
2021/01/23 02:36:26;;;;;;;2.77;2.20;;;4.20;99.90;;;;;;5056337;28;20466;-73
2021/01/23 02:38:54;;;;;;;6.07;2.90;;;4.30;99.90;;;;;;5055925;28;20405;-72
2021/01/23 02:41:22;;;;;;;2.00;1.80;;;4.30;99.90;;;;;;5038609;28;20533;-71
2021/01/23 02:43:50;;;;;;;4.00;2.27;;;4.30;99.90;;;;;;5034762;28;20434;-73
2021/01/23 02:46:19;;;;;;;3.20;2.30;;;4.30;99.90;;;;;;5018097;28;20467;-71
2021/01/23 02:48:49;;;;;;;3.60;2.60;;;4.10;99.90;;;;;;5037198;28;20969;-71
2021/01/23 02:51:26;;;;;;;2.43;1.47;;;4.00;99.90;;;;;;5037539;28;20809;-72
2021/01/23 02:54:00;;;;;;;2.37;2.17;;;3.90;99.90;;;;;;5026635;28;20443;-71
2021/01/23 02:56:30;;;;;;;2.70;2.03;;;3.90;99.90;;;;;;5010986;28;20474;-70
2021/01/23 02:59:02;;;;;;;2.70;1.90;;;3.70;99.90;;;;;;5045548;28;20867;-72
2021/01/23 03:01:57;;;;;;;2.20;1.73;;;3.60;99.90;;;;;;5043486;28;20489;-71
2021/01/23 03:04:27;;;;;;;2.37;2.17;;;3.30;99.90;;;;;;5030216;28;20466;-71
2021/01/23 03:06:56;;;;;;;2.50;1.60;;;3.10;99.90;;;;;;5014563;28;20470;-71
2021/01/23 03:09:25;;;;;;;3.90;1.90;;;2.90;99.90;;;;;;5023383;28;20520;-70
2021/01/23 03:11:53;;;;;;;2.70;2.00;;;2.70;99.90;;;;;;5018768;28;20942;-70
2021/01/23 03:14:21;;;;;;;3.27;2.27;;;2.60;99.90;;;;;;5030602;28;20450;-70
2021/01/23 03:16:49;;;;;;;2.80;1.80;;;2.50;99.90;;;;;;5039657;28;20541;-69
2021/01/23 03:19:17;;;;;;;1.47;1.20;;;2.50;99.90;;;;;;5034530;28;20472;-69
2021/01/23 03:21:47;;;;;;;1.80;1.40;;;2.30;99.90;;;;;;5036254;28;20439;-71
2021/01/23 03:24:14;;;;;;;1.83;1.60;;;2.30;99.90;;;;;;5036220;28;20435;-69
2021/01/23 03:26:42;;;;;;;2.03;1.83;;;2.20;99.90;;;;;;5035823;28;20431;-72
2021/01/23 03:29:10;;;;;;;1.50;1.40;;;2.10;99.90;;;;;;5035711;28;20444;-70
2021/01/23 03:31:38;;;;;;;1.60;1.50;;;2.10;99.90;;;;;;5016110;28;20495;-70
2021/01/23 03:34:07;;;;;;;1.30;1.13;;;2.00;99.90;;;;;;5035285;28;20463;-70
2021/01/23 03:36:34;;;;;;;1.40;1.30;;;2.00;99.90;;;;;;5034914;28;21089;-70
2021/01/23 03:39:04;;;;;;;1.23;0.90;;;2.10;99.90;;;;;;5034380;28;20470;-70
2021/01/23 03:41:56;;;;;;;1.13;0.90;;;2.00;99.90;;;;;;5020790;28;20513;-70
2021/01/23 03:44:24;;;;;;;0.83;0.83;;;2.00;99.90;;;;;;5054940;28;20961;-70
2021/01/23 03:46:52;;;;;;;1.67;1.10;;;1.90;99.90;;;;;;5035258;28;20842;-71
2021/01/23 03:49:19;;;;;;;0.93;0.90;;;2.00;99.90;;;;;;5049512;28;20470;-72
2021/01/23 03:51:46;;;;;;;0.93;0.90;;;2.00;99.90;;;;;;5059034;28;20450;-70
2021/01/23 03:54:15;;;;;;;0.80;0.80;;;1.90;99.90;;;;;;5036806;28;20445;-71
2021/01/23 03:56:42;;;;;;;0.70;0.70;;;1.90;99.90;;;;;;5054184;28;20566;-70
2021/01/23 03:59:12;;;;;;;1.33;0.93;;;1.90;99.90;;;;;;5054193;28;20498;-70
2021/01/23 04:01:40;;;;;;;0.63;0.63;;;1.90;99.90;;;;;;5054611;28;20508;-71
2021/01/23 04:04:08;;;;;;;0.80;0.73;;;1.90;99.90;;;;;;5058214;28;20426;-72
2021/01/23 04:06:36;;;;;;;0.73;0.70;;;1.80;99.90;;;;;;5040747;28;20431;-71
2021/01/23 04:09:04;;;;;;;0.83;0.60;;;1.80;99.90;;;;;;5040622;28;20488;-70
2021/01/23 04:11:32;;;;;;;0.50;0.50;;;1.90;99.90;;;;;;5040351;28;20449;-70
2021/01/23 04:13:59;;;;;;;0.70;0.50;;;1.90;99.90;;;;;;5058343;28;20465;-70
2021/01/23 04:16:27;;;;;;;0.40;0.40;;;1.90;99.90;;;;;;5057195;28;20532;-70
2021/01/23 04:18:54;;;;;;;0.67;0.50;;;1.90;99.90;;;;;;5058018;28;20924;-72
2021/01/23 04:21:22;;;;;;;1.07;0.53;;;1.90;99.90;;;;;;5058589;28;20434;-71
2021/01/23 04:23:49;;;;;;;0.50;0.40;;;1.80;99.90;;;;;;5058591;28;20983;-69
2021/01/23 04:26:18;;;;;;;0.50;0.40;;;1.80;99.90;;;;;;5058247;28;20439;-70
2021/01/23 04:28:46;;;;;;;0.63;0.40;;;1.80;99.90;;;;;;5040254;28;20467;-70
2021/01/23 04:31:13;;;;;;;1.37;0.50;;;1.80;99.90;;;;;;5039037;28;20498;-70
2021/01/23 04:33:41;;;;;;;0.40;0.30;;;1.70;99.90;;;;;;5040047;28;20529;-70
2021/01/23 04:36:08;;;;;;;0.40;0.40;;;1.80;99.90;;;;;;5058016;28;20461;-73
2021/01/23 04:38:36;;;;;;;0.80;0.67;;;1.80;99.90;;;;;;5057378;28;20525;-69
2021/01/23 04:41:03;;;;;;;0.50;0.50;;;1.80;99.90;;;;;;5057540;28;20525;-70
2021/01/23 04:43:31;;;;;;;0.47;0.43;;;1.80;99.90;;;;;;5057367;28;21017;-71
2021/01/23 04:45:59;;;;;;;0.60;0.50;;;1.80;99.90;;;;;;5056771;28;20530;-70
2021/01/23 04:48:27;;;;;;;2.13;0.60;;;1.80;99.90;;;;;;5057562;28;20434;-70
2021/01/23 04:50:55;;;;;;;0.80;0.60;;;1.80;99.90;;;;;;5040018;28;20517;-70
2021/01/23 04:53:23;;;;;;;1.10;0.80;;;1.80;99.90;;;;;;5058138;28;20458;-71
2021/01/23 04:55:50;;;;;;;0.80;0.47;;;1.60;99.90;;;;;;5057485;28;20545;-72
2021/01/23 04:58:18;;;;;;;0.70;0.50;;;1.70;99.90;;;;;;5039709;28;20462;-72
2021/01/23 05:00:45;;;;;;;1.10;0.90;;;1.70;99.90;;;;;;5056783;28;20450;-69
2021/01/23 05:03:14;;;;;;;0.70;0.50;;;1.70;99.90;;;;;;5039867;28;20431;-72
2021/01/23 05:05:42;;;;;;;0.73;0.70;;;1.70;99.90;;;;;;5038924;28;20453;-72
2021/01/23 05:08:11;;;;;;;0.70;0.60;;;1.70;99.90;;;;;;5057159;28;20490;-70
2021/01/23 05:10:39;;;;;;;1.27;0.70;;;1.70;99.90;;;;;;5056925;28;20431;-73
2021/01/23 05:13:13;;;;;;;0.50;0.50;;;1.70;99.90;;;;;;5056185;28;20442;-71
2021/01/23 05:15:43;;;;;;;0.50;0.50;;;1.70;99.90;;;;;;5038000;28;20474;-71
2021/01/23 05:18:12;;;;;;;0.80;0.60;;;1.70;99.90;;;;;;5036340;28;20507;-69
2021/01/23 05:20:42;;;;;;;0.73;0.60;;;1.70;99.90;;;;;;5037751;28;21012;-69
2021/01/23 05:23:12;;;;;;;0.57;0.57;;;1.70;99.90;;;;;;5055516;28;20878;-70
2021/01/23 05:25:41;;;;;;;0.70;0.67;;;1.70;99.90;;;;;;5056969;28;20530;-72
2021/01/23 05:28:35;;;;;;;0.83;0.63;;;1.80;99.90;;;;;;5056966;28;20438;-71
2021/01/23 05:31:04;;;;;;;0.60;0.60;;;1.70;99.90;;;;;;5056191;28;20447;-72
2021/01/23 05:33:33;;;;;;;0.73;0.63;;;1.70;99.90;;;;;;5056513;28;20533;-72
2021/01/23 05:36:03;;;;;;;1.37;0.80;;;1.70;99.90;;;;;;5038883;28;20465;-73
2021/01/23 05:38:31;;;;;;;0.93;0.80;;;1.80;99.90;;;;;;5056415;28;20792;-71
2021/01/23 05:41:10;;;;;;;0.60;0.50;;;1.80;99.90;;;;;;5022785;28;20430;-71
2021/01/23 05:43:40;;;;;;;1.20;0.70;;;1.80;99.90;;;;;;5056916;28;20596;-72
2021/01/23 05:46:09;;;;;;;0.90;0.70;;;1.80;99.90;;;;;;5055756;28;20553;-74
2021/01/23 05:48:41;;;;;;;0.90;0.80;;;1.80;99.90;;;;;;5056979;28;20517;-71
2021/01/23 05:51:10;;;;;;;0.80;0.60;;;1.80;99.90;;;;;;5056051;28;20439;-71
2021/01/23 05:54:02;;;;;;;1.00;0.90;;;1.80;99.90;;;;;;5056401;28;20438;-71
2021/01/23 05:56:30;;;;;;;0.73;0.73;;;1.80;99.90;;;;;;5056570;28;20449;-71
2021/01/23 05:58:59;;;;;;;0.90;0.90;;;1.80;99.90;;;;;;5056156;28;20923;-71
2021/01/23 06:01:27;;;;;;;1.03;0.90;;;1.80;99.90;;;;;;5055248;28;20473;-71
2021/01/23 06:03:57;;;;;;;1.03;0.93;;;1.80;99.90;;;;;;5056235;28;20546;-73
2021/01/23 06:06:51;;;;;;;0.87;0.80;;;1.80;99.90;;;;;;5055598;28;20822;-71
2021/01/23 06:09:36;;;;;;;0.80;0.80;;;1.80;99.90;;;;;;5056510;28;20458;-72
2021/01/23 06:12:05;;;;;;;0.73;0.73;;;1.80;99.90;;;;;;5038228;28;20492;-71
2021/01/23 06:14:36;;;;;;;1.17;0.97;;;1.80;99.90;;;;;;5038605;28;20456;-71
2021/01/23 06:17:05;;;;;;;1.00;0.80;;;1.90;99.90;;;;;;5055459;28;20884;-70
2021/01/23 06:19:42;;;;;;;0.80;0.80;;;1.80;99.90;;;;;;5048860;28;20466;-70
2021/01/23 06:22:12;;;;;;;1.37;1.27;;;1.80;99.90;;;;;;5056122;28;20467;-71
2021/01/23 06:24:54;;;;;;;0.70;0.70;;;1.80;99.90;;;;;;5037137;28;20443;-71
2021/01/23 06:27:23;;;;;;;1.10;1.00;;;1.80;99.90;;;;;;5038066;28;20461;-71
2021/01/23 06:29:51;;;;;;;1.20;0.90;;;1.80;99.90;;;;;;5056031;28;20442;-71
2021/01/23 06:32:31;;;;;;;1.20;0.93;;;1.80;99.90;;;;;;5070660;28;20461;-70
2021/01/23 06:35:00;;;;;;;1.03;0.93;;;1.80;99.90;;;;;;5026706;28;20771;-74
2021/01/23 06:37:31;;;;;;;0.97;0.97;;;1.80;99.90;;;;;;5055689;28;20463;-71
2021/01/23 06:40:08;;;;;;;1.13;1.03;;;1.80;99.90;;;;;;5037914;28;20458;-73
2021/01/23 06:42:38;;;;;;;2.10;1.20;;;1.80;99.90;;;;;;5055902;28;20930;-71
2021/01/23 06:45:16;;;;;;;1.03;1.00;;;1.80;99.90;;;;;;5054973;28;20430;-70
2021/01/23 06:47:46;;;;;;;1.30;1.20;;;1.80;99.90;;;;;;5055183;28;20482;-71
2021/01/23 06:50:26;;;;;;;1.40;1.20;;;1.80;99.90;;;;;;5021207;28;20458;-71
2021/01/23 06:52:57;;;;;;;1.73;1.40;;;1.80;99.90;;;;;;5055877;28;20433;-71
2021/01/23 06:55:51;;;;;;;2.23;1.80;;;1.80;99.90;;;;;;5038015;28;20949;-72
2021/01/23 06:58:21;;;;;;;2.00;1.80;;;1.80;99.90;;;;;;5056321;28;20473;-71
2021/01/23 07:00:50;;;;;;;2.40;1.90;;;1.80;99.90;;;;;;5054925;28;20449;-70
2021/01/23 07:03:18;;;;;;;2.00;1.90;;;1.70;99.90;;;;;;5055687;28;20431;-71
2021/01/23 07:05:47;;;;;;;3.57;1.73;;;1.70;99.90;;;;;;5021452;28;20492;-72
2021/01/23 07:08:29;;;;;;;2.00;1.70;;;1.80;99.90;;;;;;5037220;28;20449;-71
2021/01/23 07:11:14;;;;;;;2.43;1.70;;;1.80;99.90;;;;;;5038049;28;20438;-71
2021/01/23 07:13:57;;;;;;;1.67;1.40;;;1.80;99.90;;;;;;5037995;28;20782;-70
2021/01/23 07:16:25;;;;;;;2.43;1.70;;;1.80;99.90;;;;;;5035701;28;20473;-71
2021/01/23 07:18:54;;;;;;;1.63;1.53;;;1.80;99.90;;;;;;5055957;28;20461;-71
2021/01/23 07:21:23;;;;;;;1.70;1.60;;;1.80;99.90;;;;;;5021784;28;20499;-70
2021/01/23 07:23:53;;;;;;;1.97;1.77;;;1.70;99.90;;;;;;5038470;28;20537;-70
2021/01/23 07:26:21;;;;;;;2.37;2.00;;;1.70;99.90;;;;;;5038024;28;20509;-71
2021/01/23 07:28:50;;;;;;;6.60;1.80;;;1.70;99.90;;;;;;5056040;28;20430;-72
2021/01/23 07:31:25;;;;;;;2.87;2.00;;;1.70;99.90;;;;;;5055011;28;20461;-75
2021/01/23 07:33:54;;;;;;;2.00;1.73;;;1.70;99.90;;;;;;5056097;28;20521;-70
2021/01/23 07:36:36;;;;;;;3.70;2.07;;;1.70;99.90;;;;;;5039211;28;20861;-70
2021/01/23 07:39:12;;;;;;;1.70;1.60;;;1.70;99.90;;;;;;5070673;28;20443;-71
2021/01/23 07:41:45;;;;;;;1.87;1.40;;;1.70;99.90;;;;;;5071352;28;20452;-70
2021/01/23 07:44:13;;;;;;;2.30;1.93;;;1.70;99.90;;;;;;5057130;28;20430;-70
2021/01/23 07:46:42;;;;;;;3.63;2.23;;;1.80;99.90;;;;;;5055119;28;20471;-71
2021/01/23 07:49:19;;;;;;;2.43;2.20;;;1.80;99.90;;;;;;5055521;28;20442;-71
2021/01/23 07:51:47;;;;;;;2.60;2.17;;;1.80;99.90;;;;;;5037009;28;20438;-71
2021/01/23 07:54:16;;;;;;;2.00;1.80;;;1.80;99.90;;;;;;5036748;28;20934;-72
2021/01/23 07:56:52;;;;;;;1.97;1.77;;;1.80;99.90;;;;;;5053429;28;20435;-70
2021/01/23 07:59:20;;;;;;;3.07;2.00;;;1.80;99.90;;;;;;5054896;28;20441;-71
2021/01/23 08:01:47;;;;;;;2.53;2.20;;;1.90;99.90;;;;;;5054015;28;20477;-73
2021/01/23 08:04:35;;;;;;;2.60;2.30;;;1.90;99.90;;;;;;5037190;28;20910;-71
2021/01/23 08:07:21;;;;;;;2.47;2.27;;;1.90;99.90;;;;;;5037637;28;20454;-71
2021/01/23 08:13:14;;;;;;;3.13;2.70;;;1.90;99.90;;;;;;5175609;27;20255;-69
2021/01/23 08:15:41;;;;;;;3.73;2.63;;;2.00;99.90;;;;;;5155792;27;20830;-69
2021/01/23 08:18:21;;;;;;;3.30;2.60;;;2.00;99.90;;;;;;5154494;27;20478;-70
2021/01/23 08:20:48;;;;;;;3.67;3.30;;;2.00;99.90;;;;;;5131538;27;20473;-68
2021/01/23 08:23:16;;;;;;;2.90;2.50;;;2.00;99.90;;;;;;5153115;27;20468;-72
2021/01/23 08:25:49;;;;;;;5.80;3.80;;;2.10;99.90;;;;;;5154385;27;20430;-69
2021/01/23 08:28:35;;;;;;;3.27;2.77;;;2.10;99.90;;;;;;5154390;27;20426;-69
2021/01/23 08:31:11;;;;;;;5.00;3.27;;;2.20;99.90;;;;;;5153362;27;20518;-69
2021/01/23 08:33:38;;;;;;;7.57;4.80;;;2.20;99.90;;;;;;5135473;27;20437;-72
2021/01/23 08:36:06;;;;;;;4.40;3.23;;;2.10;99.90;;;;;;5118728;27;20454;-70
2021/01/23 08:38:34;;;;;;;4.30;3.40;;;2.20;99.90;;;;;;5117655;27;20422;-69
2021/01/23 08:41:01;;;;;;;4.03;3.00;;;2.20;99.90;;;;;;5154282;27;20438;-70
2021/01/23 08:43:30;;;;;;;4.00;3.30;;;2.30;99.90;;;;;;5118684;27;20462;-67
2021/01/23 08:45:57;;;;;;;3.50;2.67;;;2.40;99.90;;;;;;5131034;28;20507;-71
2021/01/23 08:48:26;;;;;;;7.50;3.30;;;2.40;99.90;;;;;;5133507;28;20423;-73
2021/01/23 08:50:54;;;;;;;4.70;3.60;;;2.50;99.90;;;;;;5133572;28;20461;-70
2021/01/23 08:53:21;;;;;;;5.60;3.50;;;2.60;99.90;;;;;;5133459;28;20444;-71
2021/01/23 08:55:49;;;;;;;3.83;2.90;;;2.60;99.90;;;;;;5132936;28;20435;-71
2021/01/23 08:58:17;;;;;;;3.80;2.50;;;2.60;99.90;;;;;;5114667;28;20435;-71
2021/01/23 09:00:45;;;;;;;4.10;3.00;;;2.60;99.90;;;;;;5116679;27;20457;-71
2021/01/23 09:03:13;;;;;;;4.53;2.90;;;2.60;99.90;;;;;;5125166;27;20589;-70
2021/01/23 09:05:41;;;;;;;4.17;2.37;;;2.50;99.90;;;;;;5144832;27;20462;-69
2021/01/23 09:08:09;;;;;;;5.23;2.73;;;2.60;99.90;;;;;;5144936;27;20458;-70
2021/01/23 09:10:36;;;;;;;3.40;2.83;;;2.60;99.90;;;;;;5142602;27;20470;-71
2021/01/23 09:13:06;;;;;;;5.53;2.93;;;2.70;99.90;;;;;;5126806;27;20464;-70
2021/01/23 09:15:34;;;;;;;6.10;4.13;;;2.70;99.90;;;;;;5153242;27;20470;-70
2021/01/23 09:18:03;;;;;;;4.40;2.97;;;2.90;99.90;;;;;;5146776;27;20476;-71
2021/01/23 09:20:31;;;;;;;3.43;3.10;;;3.00;99.90;;;;;;5126842;27;20473;-71
2021/01/23 09:22:58;;;;;;;6.10;2.60;;;3.10;99.90;;;;;;5120268;27;20465;-65
2021/01/23 09:25:26;;;;;;;4.23;3.50;;;3.20;99.90;;;;;;5139786;27;20480;-65
2021/01/23 09:27:53;;;;;;;4.17;2.90;;;3.40;99.90;;;;;;5150433;27;20510;-65
2021/01/23 09:30:21;;;;;;;5.00;3.73;;;3.50;99.90;;;;;;5148184;27;20541;-64
2021/01/23 09:32:48;;;;;;;4.50;3.03;;;3.50;99.90;;;;;;5147071;27;20502;-66
2021/01/23 09:35:17;;;;;;;5.10;4.10;;;3.40;99.90;;;;;;5149580;27;20465;-65
2021/01/23 09:37:45;;;;;;;6.00;4.70;;;3.30;99.90;;;;;;5145879;27;20451;-63
2021/01/23 09:40:13;;;;;;;6.57;4.87;;;3.30;99.90;;;;;;5149855;27;20453;-65
2021/01/23 09:42:40;;;;;;;11.60;6.13;;;3.30;99.90;;;;;;5148250;27;21546;-65
2021/01/23 09:45:09;;;;;;;10.00;6.83;;;3.30;99.90;;;;;;5130486;27;20453;-65
2021/01/23 09:47:37;;;;;;;12.53;7.87;;;3.30;99.90;;;;;;5147491;27;20484;-65
2021/01/23 09:50:06;;;;;;;9.03;7.27;;;3.40;99.90;;;;;;5146014;27;20443;-65
2021/01/23 09:52:37;;;;;;;15.90;8.07;;;3.40;99.90;;;;;;5148727;27;20478;-66
2021/01/23 09:55:07;;;;;;;12.50;7.97;;;3.40;99.90;;;;;;5147908;27;20439;-64
2021/01/23 09:57:35;;;;;;;9.93;7.17;;;3.50;99.90;;;;;;5129969;27;20443;-65
2021/01/23 10:00:05;;;;;;;11.70;8.77;;;3.50;99.90;;;;;;5149687;27;20478;-64
2021/01/23 10:02:39;;;;;;;11.87;7.50;;;3.50;99.90;;;;;;5156602;27;20473;-64
2021/01/23 10:05:08;;;;;;;10.97;7.13;;;3.60;99.90;;;;;;5156906;27;20431;-64
2021/01/23 10:07:37;;;;;;;16.83;8.60;;;3.70;99.90;;;;;;5157608;27;20426;-65
2021/01/23 10:10:05;;;;;;;11.83;9.07;;;3.60;99.90;;;;;;5156301;27;20435;-68
2021/01/23 10:12:33;;;;;;;11.07;7.67;;;3.50;99.90;;;;;;5156694;27;20527;-65
2021/01/23 10:15:01;;;;;;;11.90;7.60;;;3.50;99.90;;;;;;5152842;27;20446;-68
2021/01/23 10:17:29;;;;;;;11.50;8.70;;;3.40;99.90;;;;;;5152125;27;20463;-66
2021/01/23 10:19:57;;;;;;;11.53;8.47;;;3.30;99.90;;;;;;5156005;27;20431;-66
2021/01/23 10:22:24;;;;;;;12.73;9.27;;;3.20;99.90;;;;;;5156375;27;20455;-65
2021/01/23 10:24:51;;;;;;;16.93;9.77;;;3.20;99.90;;;;;;5153123;27;20423;-67
2021/01/23 10:27:20;;;;;;;16.00;7.73;;;3.10;99.90;;;;;;5133432;27;20431;-67
2021/01/23 10:29:47;;;;;;;12.20;8.50;;;3.10;99.90;;;;;;5155648;27;20453;-66
2021/01/23 10:32:15;;;;;;;11.77;8.50;;;3.10;99.90;;;;;;5153875;27;20538;-66
2021/01/23 10:34:43;;;;;;;11.50;7.67;;;3.20;99.90;;;;;;5153953;27;20905;-67
2021/01/23 10:37:10;;;;;;;13.90;9.60;;;3.20;99.90;;;;;;5153641;27;20414;-65
2021/01/23 10:39:38;;;;;;;14.00;8.00;;;3.20;99.90;;;;;;5147875;27;20456;-64
2021/01/23 10:42:09;;;;;;;12.40;8.70;;;3.20;99.90;;;;;;5138772;27;20435;-66
2021/01/23 10:44:39;;;;;;;20.73;10.43;;;3.20;99.90;;;;;;5138723;27;20458;-64
2021/01/23 10:47:07;;;;;;;14.43;8.97;;;3.20;99.90;;;;;;5137040;27;20953;-67
2021/01/23 10:49:35;;;;;;;16.37;9.80;;;3.30;99.90;;;;;;5138949;27;20927;-67
2021/01/23 10:52:04;;;;;;;14.53;8.30;;;3.30;99.90;;;;;;5138607;27;20507;-65
2021/01/23 10:54:32;;;;;;;16.23;9.27;;;3.30;99.90;;;;;;5137985;27;20441;-65
2021/01/23 10:57:02;;;;;;;17.30;10.00;;;3.30;99.90;;;;;;5119832;27;20431;-65
2021/01/23 10:59:30;;;;;;;16.90;8.40;;;3.40;99.90;;;;;;5137489;27;20486;-65
2021/01/23 11:01:58;;;;;;;16.87;9.57;;;3.50;99.90;;;;;;5137108;27;20466;-66
2021/01/23 11:04:25;;;;;;;17.30;9.03;;;3.60;99.90;;;;;;5137764;27;20558;-65
2021/01/23 11:06:53;;;;;;;16.43;9.20;;;3.50;99.90;;;;;;5138017;27;20449;-67
2021/01/23 11:09:21;;;;;;;19.10;9.17;;;3.60;99.90;;;;;;5137553;27;20423;-65
2021/01/23 11:11:49;;;;;;;10.30;7.17;;;3.60;99.90;;;;;;5137630;27;20485;-65
2021/01/23 11:14:16;;;;;;;15.47;8.80;;;3.70;99.90;;;;;;5120470;27;20423;-65
2021/01/23 11:16:45;;;;;;;11.17;7.43;;;3.70;99.90;;;;;;5137491;27;20558;-68
2021/01/23 11:19:12;;;;;;;13.47;8.43;;;3.70;99.90;;;;;;5138372;27;20431;-64
2021/01/23 11:21:46;;;;;;;14.00;9.07;;;3.70;99.90;;;;;;5138938;27;20427;-65
2021/01/23 11:24:14;;;;;;;13.63;9.47;;;3.70;99.90;;;;;;5138673;27;20443;-64
2021/01/23 11:26:41;;;;;;;13.23;8.40;;;3.70;99.90;;;;;;5119718;27;20783;-65
2021/01/23 11:29:10;;;;;;;12.90;8.23;;;3.80;99.90;;;;;;5137631;27;20817;-64
2021/01/23 11:31:37;;;;;;;9.43;6.43;;;4.00;99.90;;;;;;5136700;27;21020;-65
2021/01/23 11:34:07;;;;;;;10.30;7.60;;;3.80;99.90;;;;;;5119413;27;20426;-64
2021/01/23 11:36:34;;;;;;;12.40;7.17;;;3.90;99.90;;;;;;5138493;27;20481;-65
2021/01/23 11:39:04;;;;;;;14.20;7.20;;;4.00;99.90;;;;;;5119367;27;20414;-64
2021/01/23 11:41:32;;;;;;;12.73;8.10;;;4.00;99.90;;;;;;5138368;27;20552;-66
2021/01/23 11:43:59;;;;;;;13.73;8.70;;;3.80;99.90;;;;;;5119351;27;20466;-66
2021/01/23 11:46:27;;;;;;;18.73;10.53;;;3.80;99.90;;;;;;5127333;27;20557;-67
2021/01/23 11:48:55;;;;;;;13.43;7.60;;;3.70;99.90;;;;;;5119981;27;20409;-65
2021/01/23 11:51:23;;;;;;;12.30;7.40;;;3.80;99.90;;;;;;5138715;27;20459;-66
2021/01/23 11:53:52;;;;;;;11.87;8.00;;;4.10;99.90;;;;;;5146911;27;20405;-66
2021/01/23 11:56:19;;;;;;;9.93;7.20;;;4.30;99.90;;;;;;5144387;27;20419;-66
2021/01/23 11:58:47;;;;;;;9.73;7.00;;;4.50;99.90;;;;;;5139177;27;20476;-65
2021/01/23 12:01:14;;;;;;;9.57;5.73;;;4.70;99.90;;;;;;5136693;27;20479;-69
2021/01/23 12:03:43;;;;;;;10.37;7.30;;;4.70;99.90;;;;;;5151050;27;20433;-67
2021/01/23 12:06:11;;;;;;;8.73;6.27;;;5.20;99.90;;;;;;5154028;27;20499;-66
2021/01/23 12:08:39;;;;;;;10.03;6.80;;;6.00;99.90;;;;;;5151967;27;20399;-66
2021/01/23 12:11:07;;;;;;;8.87;5.33;;;6.60;99.90;;;;;;5146753;28;20466;-67
2021/01/23 12:13:35;;;;;;;8.53;5.60;;;6.60;99.90;;;;;;5137854;28;20432;-66
2021/01/23 12:16:04;;;;;;;8.17;6.77;;;6.20;99.90;;;;;;5134562;28;20409;-65
2021/01/23 12:18:31;;;;;;;9.80;6.53;;;5.10;99.90;;;;;;5136842;28;20406;-66
2021/01/23 12:20:59;;;;;;;7.90;6.03;;;4.50;99.90;;;;;;5137014;28;20406;-65
2021/01/23 12:23:26;;;;;;;7.13;5.03;;;4.70;99.90;;;;;;5119062;28;20803;-67
2021/01/23 12:25:54;;;;;;;10.63;6.77;;;4.50;99.90;;;;;;5136975;28;20423;-66
2021/01/23 12:28:22;;;;;;;11.13;6.40;;;4.20;99.90;;;;;;5137388;28;20481;-66
2021/01/23 12:30:49;;;;;;;8.70;7.77;;;4.10;99.90;;;;;;5110892;28;20450;-66
2021/01/23 12:33:16;;;;;;;13.80;7.07;;;4.10;99.90;;;;;;5116859;28;20441;-65
2021/01/23 12:35:43;;;;;;;18.77;12.63;;;4.00;99.90;;;;;;5115602;28;20436;-68
2021/01/23 12:38:12;;;;;;;139.20;79.00;;;3.90;99.90;;;;;;5099950;28;20410;-65
2021/01/23 12:40:39;;;;;;;10.00;6.90;;;4.00;99.90;;;;;;5116561;28;20423;-67
2021/01/23 12:43:08;;;;;;;10.20;6.90;;;4.00;99.90;;;;;;5115283;28;20439;-65
2021/01/23 12:45:34;;;;;;;8.80;6.60;;;4.00;99.90;;;;;;5120630;28;20445;-66
2021/01/23 12:48:05;;;;;;;10.70;6.30;;;3.90;99.90;;;;;;5136144;28;20467;-66
2021/01/23 12:50:32;;;;;;;8.13;6.30;;;4.30;99.90;;;;;;5136192;28;20434;-66
2021/01/23 12:53:00;;;;;;;13.10;6.80;;;4.60;99.90;;;;;;5118225;28;21035;-65
2021/01/23 12:55:30;;;;;;;7.33;6.10;;;4.80;99.90;;;;;;5136888;28;20434;-66
2021/01/23 12:57:58;;;;;;;9.80;5.93;;;4.90;99.90;;;;;;5138124;27;20429;-66
2021/01/23 13:00:28;;;;;;;8.20;6.00;;;4.50;99.90;;;;;;5140874;27;20507;-65
2021/01/23 13:02:58;;;;;;;7.47;5.97;;;4.70;99.90;;;;;;5140842;27;20481;-65
2021/01/23 13:05:26;;;;;;;7.33;5.20;;;4.70;99.90;;;;;;5141257;27;20417;-65
2021/01/23 13:07:54;;;;;;;7.73;5.57;;;4.70;99.90;;;;;;5141667;27;20431;-66
2021/01/23 13:10:24;;;;;;;8.50;4.97;;;4.90;99.90;;;;;;5141250;27;20405;-66
2021/01/23 13:12:52;;;;;;;8.97;5.73;;;5.10;99.90;;;;;;5105290;27;20492;-69
2021/01/23 13:15:19;;;;;;;7.40;5.87;;;4.90;99.90;;;;;;5140897;27;20435;-65
2021/01/23 13:17:47;;;;;;;6.90;5.53;;;4.70;99.90;;;;;;5121755;27;20478;-65